sensor_id;sensor_type;location;lat;lon;timestamp;pressure;altitude;pressure_sealevel;temperature;humidity
43125;BME280;49182;50.788;7.318;2023-01-30T00:02:01;101320.41;;;1.96;88.37
43125;BME280;49182;50.788;7.318;2023-01-30T00:04:29;101349.41;;;2.09;88.47
43125;BME280;49182;50.788;7.318;2023-01-30T00:06:55;101332.00;;;2.09;88.36
43125;BME280;49182;50.788;7.318;2023-01-30T00:09:22;101308.31;;;2.15;88.29
43125;BME280;49182;50.788;7.318;2023-01-30T00:11:48;101314.94;;;2.22;88.54
43125;BME280;49182;50.788;7.318;2023-01-30T00:14:15;101322.94;;;2.18;88.32
43125;BME280;49182;50.788;7.318;2023-01-30T00:16:42;101320.28;;;2.19;88.55
43125;BME280;49182;50.788;7.318;2023-01-30T00:19:08;101323.09;;;2.15;89.04
43125;BME280;49182;50.788;7.318;2023-01-30T00:21:36;101308.38;;;2.14;89.07
43125;BME280;49182;50.788;7.318;2023-01-30T00:24:03;101279.63;;;1.95;89.43
43125;BME280;49182;50.788;7.318;2023-01-30T00:26:30;101299.72;;;2.13;88.94
43125;BME280;49182;50.788;7.318;2023-01-30T00:28:57;101295.16;;;2.18;88.91
43125;BME280;49182;50.788;7.318;2023-01-30T00:31:24;101279.66;;;2.15;88.49
43125;BME280;49182;50.788;7.318;2023-01-30T00:33:50;101281.59;;;2.10;89.10
43125;BME280;49182;50.788;7.318;2023-01-30T00:36:17;101261.88;;;2.04;88.77
43125;BME280;49182;50.788;7.318;2023-01-30T00:38:45;101288.97;;;2.21;88.11
43125;BME280;49182;50.788;7.318;2023-01-30T00:41:11;101273.16;;;2.25;87.91
43125;BME280;49182;50.788;7.318;2023-01-30T00:43:40;101273.78;;;2.30;87.73
43125;BME280;49182;50.788;7.318;2023-01-30T00:46:13;101257.94;;;2.35;87.44
43125;BME280;49182;50.788;7.318;2023-01-30T00:48:40;101269.16;;;2.37;87.20
43125;BME280;49182;50.788;7.318;2023-01-30T00:51:07;101261.94;;;2.43;87.20
43125;BME280;49182;50.788;7.318;2023-01-30T00:53:34;101255.94;;;2.41;87.10
43125;BME280;49182;50.788;7.318;2023-01-30T00:56:03;101229.75;;;2.24;86.85
43125;BME280;49182;50.788;7.318;2023-01-30T00:58:29;101257.41;;;2.47;87.54
43125;BME280;49182;50.788;7.318;2023-01-30T01:00:56;101215.50;;;2.33;87.02
43125;BME280;49182;50.788;7.318;2023-01-30T01:03:23;101242.63;;;2.48;86.97
43125;BME280;49182;50.788;7.318;2023-01-30T01:05:50;101219.53;;;2.40;86.82
43125;BME280;49182;50.788;7.318;2023-01-30T01:08:16;101220.81;;;2.50;86.65
43125;BME280;49182;50.788;7.318;2023-01-30T01:10:43;101236.25;;;2.55;87.19
43125;BME280;49182;50.788;7.318;2023-01-30T01:13:11;101181.75;;;2.30;87.07
43125;BME280;49182;50.788;7.318;2023-01-30T01:15:37;101231.81;;;2.57;87.01
43125;BME280;49182;50.788;7.318;2023-01-30T01:18:05;101221.22;;;2.60;86.79
43125;BME280;49182;50.788;7.318;2023-01-30T01:20:32;101209.16;;;2.59;86.94
43125;BME280;49182;50.788;7.318;2023-01-30T01:22:58;101185.69;;;2.59;86.47
43125;BME280;49182;50.788;7.318;2023-01-30T01:25:25;101204.22;;;2.71;86.53
43125;BME280;49182;50.788;7.318;2023-01-30T01:27:52;101212.09;;;2.70;86.39
43125;BME280;49182;50.788;7.318;2023-01-30T01:30:21;101219.66;;;2.76;86.41
43125;BME280;49182;50.788;7.318;2023-01-30T01:32:48;101220.69;;;2.72;86.47
43125;BME280;49182;50.788;7.318;2023-01-30T01:35:14;101211.75;;;2.77;86.87
43125;BME280;49182;50.788;7.318;2023-01-30T01:37:42;101214.50;;;2.74;87.08
43125;BME280;49182;50.788;7.318;2023-01-30T01:40:15;101215.19;;;2.78;86.73
43125;BME280;49182;50.788;7.318;2023-01-30T01:42:43;101220.22;;;2.82;86.43
43125;BME280;49182;50.788;7.318;2023-01-30T01:45:16;101193.22;;;2.83;86.23
43125;BME280;49182;50.788;7.318;2023-01-30T01:47:48;101201.06;;;2.83;86.71
43125;BME280;49182;50.788;7.318;2023-01-30T01:50:22;101200.09;;;2.84;86.36
43125;BME280;49182;50.788;7.318;2023-01-30T01:52:51;101196.66;;;2.84;87.06
43125;BME280;49182;50.788;7.318;2023-01-30T01:55:21;101194.91;;;2.84;86.68
43125;BME280;49182;50.788;7.318;2023-01-30T01:57:51;101187.72;;;2.90;86.80
43125;BME280;49182;50.788;7.318;2023-01-30T02:00:20;101172.91;;;2.90;86.62
43125;BME280;49182;50.788;7.318;2023-01-30T02:02:52;101183.34;;;2.90;86.68
43125;BME280;49182;50.788;7.318;2023-01-30T02:05:22;101184.91;;;2.94;86.42
43125;BME280;49182;50.788;7.318;2023-01-30T02:07:52;101181.38;;;2.95;86.29
43125;BME280;49182;50.788;7.318;2023-01-30T02:10:30;101151.34;;;2.87;85.79
43125;BME280;49182;50.788;7.318;2023-01-30T02:12:59;101178.38;;;3.03;85.88
43125;BME280;49182;50.788;7.318;2023-01-30T02:15:26;101169.94;;;2.98;86.03
43125;BME280;49182;50.788;7.318;2023-01-30T02:17:54;101170.72;;;3.00;86.17
43125;BME280;49182;50.788;7.318;2023-01-30T02:20:27;101179.66;;;3.13;85.75
43125;BME280;49182;50.788;7.318;2023-01-30T02:23:14;101166.75;;;3.10;85.87
43125;BME280;49182;50.788;7.318;2023-01-30T02:28:47;101160.78;;;3.08;86.07
43125;BME280;49182;50.788;7.318;2023-01-30T02:31:32;101149.19;;;3.13;85.62
43125;BME280;49182;50.788;7.318;2023-01-30T02:34:22;101134.03;;;3.03;85.90
43125;BME280;49182;50.788;7.318;2023-01-30T02:37:00;101138.78;;;3.13;86.27
43125;BME280;49182;50.788;7.318;2023-01-30T02:39:37;101123.97;;;3.14;86.11
43125;BME280;49182;50.788;7.318;2023-01-30T02:42:18;101117.44;;;3.22;85.88
43125;BME280;49182;50.788;7.318;2023-01-30T02:44:54;101112.94;;;3.26;85.61
43125;BME280;49182;50.788;7.318;2023-01-30T02:47:29;101114.63;;;3.27;86.14
43125;BME280;49182;50.788;7.318;2023-01-30T02:50:02;101104.38;;;3.22;85.83
43125;BME280;49182;50.788;7.318;2023-01-30T02:52:33;101097.47;;;3.21;86.33
43125;BME280;49182;50.788;7.318;2023-01-30T02:55:06;101107.53;;;3.29;86.42
43125;BME280;49182;50.788;7.318;2023-01-30T02:57:34;101072.09;;;3.08;87.11
43125;BME280;49182;50.788;7.318;2023-01-30T03:00:02;101098.19;;;3.25;87.66
43125;BME280;49182;50.788;7.318;2023-01-30T03:02:52;101096.56;;;3.22;87.58
43125;BME280;49182;50.788;7.318;2023-01-30T03:05:33;101104.09;;;3.29;88.17
43125;BME280;49182;50.788;7.318;2023-01-30T03:08:15;101104.09;;;3.29;89.08
43125;BME280;49182;50.788;7.318;2023-01-30T03:10:53;101099.56;;;3.32;89.18
43125;BME280;49182;50.788;7.318;2023-01-30T03:13:30;101093.88;;;3.24;89.05
43125;BME280;49182;50.788;7.318;2023-01-30T03:16:03;101106.38;;;3.35;89.46
43125;BME280;49182;50.788;7.318;2023-01-30T03:18:33;101103.88;;;3.33;90.01
43125;BME280;49182;50.788;7.318;2023-01-30T03:21:03;101092.59;;;3.33;90.49
43125;BME280;49182;50.788;7.318;2023-01-30T03:23:30;101087.19;;;3.36;90.42
43125;BME280;49182;50.788;7.318;2023-01-30T03:25:58;101060.88;;;3.23;89.94
43125;BME280;49182;50.788;7.318;2023-01-30T03:28:26;101082.00;;;3.36;90.86
43125;BME280;49182;50.788;7.318;2023-01-30T03:30:53;101077.63;;;3.36;90.73
43125;BME280;49182;50.788;7.318;2023-01-30T03:33:20;101073.25;;;3.37;90.97
43125;BME280;49182;50.788;7.318;2023-01-30T03:35:50;101060.13;;;3.38;90.44
43125;BME280;49182;50.788;7.318;2023-01-30T03:38:16;101041.78;;;3.22;90.69
43125;BME280;49182;50.788;7.318;2023-01-30T03:40:45;101055.28;;;3.31;90.99
43125;BME280;49182;50.788;7.318;2023-01-30T03:43:12;101060.19;;;3.37;90.98
43125;BME280;49182;50.788;7.318;2023-01-30T03:45:38;101052.28;;;3.38;91.21
43125;BME280;49182;50.788;7.318;2023-01-30T03:48:06;101050.34;;;3.42;91.18
43125;BME280;49182;50.788;7.318;2023-01-30T03:50:32;101039.53;;;3.49;90.57
43125;BME280;49182;50.788;7.318;2023-01-30T03:53:01;101033.78;;;3.43;90.96
43125;BME280;49182;50.788;7.318;2023-01-30T03:55:28;101021.91;;;3.37;91.03
43125;BME280;49182;50.788;7.318;2023-01-30T03:57:55;101023.59;;;3.38;91.21
43125;BME280;49182;50.788;7.318;2023-01-30T04:00:24;101011.59;;;3.34;91.30
43125;BME280;49182;50.788;7.318;2023-01-30T04:02:51;101014.59;;;3.44;91.39
43125;BME280;49182;50.788;7.318;2023-01-30T04:05:18;101012.13;;;3.41;91.48
43125;BME280;49182;50.788;7.318;2023-01-30T04:07:50;101011.59;;;3.34;91.42
43125;BME280;49182;50.788;7.318;2023-01-30T04:10:19;101007.41;;;3.32;92.13
43125;BME280;49182;50.788;7.318;2023-01-30T04:12:46;100980.78;;;3.25;92.16
43125;BME280;49182;50.788;7.318;2023-01-30T04:15:13;100997.56;;;3.37;92.25
43125;BME280;49182;50.788;7.318;2023-01-30T04:17:51;100982.53;;;3.24;92.88
43125;BME280;49182;50.788;7.318;2023-01-30T04:20:30;100988.34;;;3.30;92.79
43125;BME280;49182;50.788;7.318;2023-01-30T04:22:57;100972.69;;;3.30;92.75
43125;BME280;49182;50.788;7.318;2023-01-30T04:25:26;100983.97;;;3.30;92.76
43125;BME280;49182;50.788;7.318;2023-01-30T04:27:53;100949.91;;;3.16;92.44
43125;BME280;49182;50.788;7.318;2023-01-30T04:30:25;100961.34;;;3.31;92.79
43125;BME280;49182;50.788;7.318;2023-01-30T04:33:02;100973.41;;;3.33;92.82
43125;BME280;49182;50.788;7.318;2023-01-30T04:35:29;100959.06;;;3.24;92.85
43125;BME280;49182;50.788;7.318;2023-01-30T04:37:55;100971.59;;;3.34;92.84
43125;BME280;49182;50.788;7.318;2023-01-30T04:40:22;100960.50;;;3.30;93.02
43125;BME280;49182;50.788;7.318;2023-01-30T04:42:50;100964.56;;;3.36;93.28
43125;BME280;49182;50.788;7.318;2023-01-30T04:45:47;100965.56;;;3.33;92.95
43125;BME280;49182;50.788;7.318;2023-01-30T04:48:15;100959.41;;;3.34;93.30
43125;BME280;49182;50.788;7.318;2023-01-30T04:50:45;100959.19;;;3.39;93.44
43125;BME280;49182;50.788;7.318;2023-01-30T04:53:13;100932.91;;;3.09;94.12
43125;BME280;49182;50.788;7.318;2023-01-30T04:55:40;100940.25;;;3.18;94.31
43125;BME280;49182;50.788;7.318;2023-01-30T04:58:09;100954.50;;;3.28;94.74
43125;BME280;49182;50.788;7.318;2023-01-30T05:00:35;100949.91;;;3.33;94.37
43125;BME280;49182;50.788;7.318;2023-01-30T05:03:03;100947.00;;;3.39;94.50
43125;BME280;49182;50.788;7.318;2023-01-30T05:05:29;100955.13;;;3.33;94.96
43125;BME280;49182;50.788;7.318;2023-01-30T05:07:56;100948.22;;;3.32;95.03
43125;BME280;49182;50.788;7.318;2023-01-30T05:10:23;100926.66;;;3.29;95.56
43125;BME280;49182;50.788;7.318;2023-01-30T05:12:50;100919.06;;;3.24;95.36
43125;BME280;49182;50.788;7.318;2023-01-30T05:15:18;100940.06;;;3.38;95.90
43125;BME280;49182;50.788;7.318;2023-01-30T05:17:45;100915.38;;;3.28;97.15
43125;BME280;49182;50.788;7.318;2023-01-30T05:20:12;100907.75;;;3.41;97.67
43125;BME280;49182;50.788;7.318;2023-01-30T05:22:39;100918.22;;;3.56;97.89
43125;BME280;49182;50.788;7.318;2023-01-30T05:25:07;100904.00;;;3.62;98.72
43125;BME280;49182;50.788;7.318;2023-01-30T05:27:33;100910.63;;;3.83;98.57
43125;BME280;49182;50.788;7.318;2023-01-30T05:30:00;100896.16;;;3.78;98.46
43125;BME280;49182;50.788;7.318;2023-01-30T05:32:28;100917.22;;;4.06;97.31
43125;BME280;49182;50.788;7.318;2023-01-30T05:34:55;100893.03;;;4.02;97.10
43125;BME280;49182;50.788;7.318;2023-01-30T05:37:21;100907.50;;;4.24;97.08
43125;BME280;49182;50.788;7.318;2023-01-30T05:39:48;100910.44;;;4.33;96.05
43125;BME280;49182;50.788;7.318;2023-01-30T05:42:15;100909.06;;;4.42;95.38
43125;BME280;49182;50.788;7.318;2023-01-30T05:44:41;100905.34;;;4.46;95.03
43125;BME280;49182;50.788;7.318;2023-01-30T05:47:08;100905.75;;;4.54;95.07
43125;BME280;49182;50.788;7.318;2023-01-30T05:49:36;100909.84;;;4.58;94.80
43125;BME280;49182;50.788;7.318;2023-01-30T05:52:03;100905.47;;;4.59;95.08
43125;BME280;49182;50.788;7.318;2023-01-30T05:54:29;100913.31;;;4.59;95.66
43125;BME280;49182;50.788;7.318;2023-01-30T05:56:56;100882.84;;;4.43;95.57
43125;BME280;49182;50.788;7.318;2023-01-30T05:59:23;100910.28;;;4.66;95.52
43125;BME280;49182;50.788;7.318;2023-01-30T06:01:49;100908.78;;;4.76;95.54
43125;BME280;49182;50.788;7.318;2023-01-30T06:04:16;100910.47;;;4.77;95.93
43125;BME280;49182;50.788;7.318;2023-01-30T06:06:44;100908.44;;;4.82;94.92
43125;BME280;49182;50.788;7.318;2023-01-30T06:09:10;100901.50;;;4.81;95.35
43125;BME280;49182;50.788;7.318;2023-01-30T06:11:37;100911.31;;;4.78;96.61
43125;BME280;49182;50.788;7.318;2023-01-30T06:14:03;100901.41;;;4.83;96.55
43125;BME280;49182;50.788;7.318;2023-01-30T06:16:30;100910.59;;;4.90;95.72
43125;BME280;49182;50.788;7.318;2023-01-30T06:18:57;100917.69;;;4.88;96.17
43125;BME280;49182;50.788;7.318;2023-01-30T06:21:23;100914.78;;;4.78;98.08
43125;BME280;49182;50.788;7.318;2023-01-30T06:23:52;100906.50;;;4.86;97.11
43125;BME280;49182;50.788;7.318;2023-01-30T06:26:18;100904.78;;;4.85;97.92
43125;BME280;49182;50.788;7.318;2023-01-30T06:28:45;100906.97;;;4.93;96.33
43125;BME280;49182;50.788;7.318;2023-01-30T06:31:12;100922.56;;;4.94;96.68
43125;BME280;49182;50.788;7.318;2023-01-30T06:33:38;100925.38;;;4.91;97.02
43125;BME280;49182;50.788;7.318;2023-01-30T06:36:06;100911.53;;;4.89;97.56
43125;BME280;49182;50.788;7.318;2023-01-30T06:38:33;100919.22;;;4.92;97.92
43125;BME280;49182;50.788;7.318;2023-01-30T06:41:01;100928.16;;;4.88;97.99
43125;BME280;49182;50.788;7.318;2023-01-30T06:43:27;100936.69;;;4.92;97.72
43125;BME280;49182;50.788;7.318;2023-01-30T06:45:54;100926.50;;;4.87;97.64
43125;BME280;49182;50.788;7.318;2023-01-30T06:48:21;100927.63;;;4.97;97.98
43125;BME280;49182;50.788;7.318;2023-01-30T06:50:47;100915.53;;;4.95;98.29
43125;BME280;49182;50.788;7.318;2023-01-30T06:53:14;100908.25;;;4.85;98.26
43125;BME280;49182;50.788;7.318;2023-01-30T06:55:41;100921.47;;;4.98;98.50
43125;BME280;49182;50.788;7.318;2023-01-30T06:58:10;100879.94;;;4.78;98.19
43125;BME280;49182;50.788;7.318;2023-01-30T07:00:38;100915.00;;;5.04;97.62
43125;BME280;49182;50.788;7.318;2023-01-30T07:03:09;100919.41;;;5.03;98.11
43125;BME280;49182;50.788;7.318;2023-01-30T07:05:36;100922.03;;;5.03;97.77
43125;BME280;49182;50.788;7.318;2023-01-30T07:08:03;100935.59;;;5.10;97.42
43125;BME280;49182;50.788;7.318;2023-01-30T07:10:29;100905.38;;;4.90;96.97
43125;BME280;49182;50.788;7.318;2023-01-30T07:12:56;100951.47;;;5.21;96.51
43125;BME280;49182;50.788;7.318;2023-01-30T07:15:24;100947.16;;;5.20;97.22
43125;BME280;49182;50.788;7.318;2023-01-30T07:17:51;100932.13;;;5.09;96.88
43125;BME280;49182;50.788;7.318;2023-01-30T07:20:17;100953.72;;;5.27;96.39
43125;BME280;49182;50.788;7.318;2023-01-30T07:22:49;100945.41;;;5.20;97.11
43125;BME280;49182;50.788;7.318;2023-01-30T07:25:16;100942.69;;;5.22;97.28
43125;BME280;49182;50.788;7.318;2023-01-30T07:27:45;100946.06;;;5.24;96.78
43125;BME280;49182;50.788;7.318;2023-01-30T07:30:15;100956.72;;;5.21;96.74
43125;BME280;49182;50.788;7.318;2023-01-30T07:32:42;100939.59;;;5.15;96.56
43125;BME280;49182;50.788;7.318;2023-01-30T07:35:09;100938.28;;;5.08;97.09
43125;BME280;49182;50.788;7.318;2023-01-30T07:37:36;100906.88;;;5.08;96.73
43125;BME280;49182;50.788;7.318;2023-01-30T07:40:03;100923.06;;;5.29;97.09
43125;BME280;49182;50.788;7.318;2023-01-30T07:42:30;100940.94;;;5.37;97.12
43125;BME280;49182;50.788;7.318;2023-01-30T07:44:56;100952.16;;;5.39;97.27
43125;BME280;49182;50.788;7.318;2023-01-30T07:47:23;100955.31;;;5.44;96.73
43125;BME280;49182;50.788;7.318;2023-01-30T07:49:51;100959.81;;;5.42;97.69
43125;BME280;49182;50.788;7.318;2023-01-30T07:52:17;100956.53;;;5.38;97.91
43125;BME280;49182;50.788;7.318;2023-01-30T07:54:44;100942.91;;;5.47;97.79
43125;BME280;49182;50.788;7.318;2023-01-30T07:57:11;100955.06;;;5.48;97.58
43125;BME280;49182;50.788;7.318;2023-01-30T07:59:37;100962.63;;;5.53;97.40
43125;BME280;49182;50.788;7.318;2023-01-30T08:02:04;100965.53;;;5.48;98.11
43125;BME280;49182;50.788;7.318;2023-01-30T08:04:31;100968.16;;;5.48;97.98
43125;BME280;49182;50.788;7.318;2023-01-30T08:07:00;100961.69;;;5.54;98.05
43125;BME280;49182;50.788;7.318;2023-01-30T08:09:26;100968.63;;;5.55;98.10
43125;BME280;49182;50.788;7.318;2023-01-30T08:11:53;100975.16;;;5.62;97.58
43125;BME280;49182;50.788;7.318;2023-01-30T08:14:19;100970.28;;;5.70;96.61
43125;BME280;49182;50.788;7.318;2023-01-30T08:16:46;100965.44;;;5.64;97.09
43125;BME280;49182;50.788;7.318;2023-01-30T08:19:13;100975.25;;;5.60;97.50
43125;BME280;49182;50.788;7.318;2023-01-30T08:21:39;100965.72;;;5.59;97.49
43125;BME280;49182;50.788;7.318;2023-01-30T08:24:07;100964.13;;;5.57;98.24
43125;BME280;49182;50.788;7.318;2023-01-30T08:26:34;100960.28;;;5.62;97.75
43125;BME280;49182;50.788;7.318;2023-01-30T08:29:01;100969.81;;;5.63;97.52
43125;BME280;49182;50.788;7.318;2023-01-30T08:31:27;100952.72;;;5.58;97.13
43125;BME280;49182;50.788;7.318;2023-01-30T08:33:54;100965.50;;;5.62;98.54
43125;BME280;49182;50.788;7.318;2023-01-30T08:36:20;100961.88;;;5.65;97.79
43125;BME280;49182;50.788;7.318;2023-01-30T08:38:47;100936.53;;;5.51;98.87
43125;BME280;49182;50.788;7.318;2023-01-30T08:41:15;100958.25;;;5.67;98.52
43125;BME280;49182;50.788;7.318;2023-01-30T08:43:42;100964.03;;;5.73;98.63
43125;BME280;49182;50.788;7.318;2023-01-30T08:46:08;100987.59;;;5.73;98.46
43125;BME280;49182;50.788;7.318;2023-01-30T08:48:35;101002.78;;;5.67;99.58
43125;BME280;49182;50.788;7.318;2023-01-30T08:51:14;100967.03;;;5.66;98.89
43125;BME280;49182;50.788;7.318;2023-01-30T08:53:41;100987.13;;;5.80;98.65
43125;BME280;49182;50.788;7.318;2023-01-30T08:56:08;100986.75;;;5.86;98.61
43125;BME280;49182;50.788;7.318;2023-01-30T08:58:35;100980.41;;;5.90;98.51
43125;BME280;49182;50.788;7.318;2023-01-30T09:01:04;100993.69;;;5.87;98.95
43125;BME280;49182;50.788;7.318;2023-01-30T09:03:31;100964.50;;;5.79;98.40
43125;BME280;49182;50.788;7.318;2023-01-30T09:05:58;100975.72;;;5.95;97.77
43125;BME280;49182;50.788;7.318;2023-01-30T09:08:24;100925.13;;;5.66;98.31
43125;BME280;49182;50.788;7.318;2023-01-30T09:10:51;100983.22;;;6.01;98.09
43125;BME280;49182;50.788;7.318;2023-01-30T09:13:18;100990.69;;;6.07;98.19
43125;BME280;49182;50.788;7.318;2023-01-30T09:15:46;100969.56;;;5.96;97.47
43125;BME280;49182;50.788;7.318;2023-01-30T09:18:12;101004.06;;;6.17;98.21
43125;BME280;49182;50.788;7.318;2023-01-30T09:20:39;101000.09;;;6.24;97.38
43125;BME280;49182;50.788;7.318;2023-01-30T09:23:06;101000.47;;;6.32;97.76
43125;BME280;49182;50.788;7.318;2023-01-30T09:25:32;100977.56;;;6.22;97.05
43125;BME280;49182;50.788;7.318;2023-01-30T09:27:59;101000.13;;;6.51;96.38
43125;BME280;49182;50.788;7.318;2023-01-30T09:30:26;101006.84;;;6.55;95.43
43125;BME280;49182;50.788;7.318;2023-01-30T09:32:54;101004.28;;;6.68;94.85
43125;BME280;49182;50.788;7.318;2023-01-30T09:35:21;100981.50;;;6.68;95.02
43125;BME280;49182;50.788;7.318;2023-01-30T09:37:48;100980.47;;;6.71;94.48
43125;BME280;49182;50.788;7.318;2023-01-30T09:40:16;100977.22;;;6.80;93.35
43125;BME280;49182;50.788;7.318;2023-01-30T09:43:00;100975.44;;;6.80;91.56
43125;BME280;49182;50.788;7.318;2023-01-30T09:45:43;100962.56;;;6.90;91.55
43125;BME280;49182;50.788;7.318;2023-01-30T09:48:17;100970.84;;;6.84;90.50
43125;BME280;49182;50.788;7.318;2023-01-30T09:51:00;100984.28;;;6.92;88.43
43125;BME280;49182;50.788;7.318;2023-01-30T09:53:35;100960.56;;;6.94;85.11
43125;BME280;49182;50.788;7.318;2023-01-30T09:56:04;100977.16;;;6.94;84.92
43125;BME280;49182;50.788;7.318;2023-01-30T09:58:40;100990.91;;;6.98;81.71
43125;BME280;49182;50.788;7.318;2023-01-30T10:01:14;100973.97;;;7.16;82.10
43125;BME280;49182;50.788;7.318;2023-01-30T10:03:53;100977.81;;;7.10;79.79
43125;BME280;49182;50.788;7.318;2023-01-30T10:06:23;100884.84;;;6.62;79.47
43125;BME280;49182;50.788;7.318;2023-01-30T10:08:55;100985.28;;;7.42;78.50
43125;BME280;49182;50.788;7.318;2023-01-30T10:11:36;100996.44;;;7.45;77.08
43125;BME280;49182;50.788;7.318;2023-01-30T10:14:15;100980.78;;;7.44;75.44
43125;BME280;49182;50.788;7.318;2023-01-30T10:16:54;101002.31;;;7.61;72.54
43125;BME280;49182;50.788;7.318;2023-01-30T10:19:49;101003.25;;;7.48;73.59
43125;BME280;49182;50.788;7.318;2023-01-30T10:22:29;101001.19;;;7.40;72.27
43125;BME280;49182;50.788;7.318;2023-01-30T10:25:15;101008.31;;;7.51;74.02
43125;BME280;49182;50.788;7.318;2023-01-30T10:27:49;101010.72;;;7.41;71.22
43125;BME280;49182;50.788;7.318;2023-01-30T10:30:17;101006.22;;;7.43;71.04
43125;BME280;49182;50.788;7.318;2023-01-30T10:32:47;101006.44;;;7.40;72.36
43125;BME280;49182;50.788;7.318;2023-01-30T10:35:20;101005.59;;;7.52;70.97
43125;BME280;49182;50.788;7.318;2023-01-30T10:37:55;101013.34;;;7.41;71.64
43125;BME280;49182;50.788;7.318;2023-01-30T10:40:28;100953.66;;;7.05;71.01
43125;BME280;49182;50.788;7.318;2023-01-30T10:43:02;101011.03;;;7.37;71.05
43125;BME280;49182;50.788;7.318;2023-01-30T10:45:38;101007.66;;;7.47;71.14
43125;BME280;49182;50.788;7.318;2023-01-30T10:48:26;101017.25;;;7.48;70.91
43125;BME280;49182;50.788;7.318;2023-01-30T10:51:19;101000.72;;;7.71;70.92
43125;BME280;49182;50.788;7.318;2023-01-30T10:53:52;101004.53;;;7.67;70.01
43125;BME280;49182;50.788;7.318;2023-01-30T10:56:27;101014.09;;;7.56;69.52
43125;BME280;49182;50.788;7.318;2023-01-30T10:59:00;101011.28;;;7.46;68.70
43125;BME280;49182;50.788;7.318;2023-01-30T11:01:36;101022.06;;;7.54;69.55
43125;BME280;49182;50.788;7.318;2023-01-30T11:04:13;100957.56;;;7.25;68.66
43125;BME280;49182;50.788;7.318;2023-01-30T11:06:46;101018.09;;;7.74;68.51
43125;BME280;49182;50.788;7.318;2023-01-30T11:09:13;100994.00;;;7.42;67.85
43125;BME280;49182;50.788;7.318;2023-01-30T11:11:47;101019.44;;;7.67;67.41
43125;BME280;49182;50.788;7.318;2023-01-30T11:14:14;101021.03;;;7.69;68.33
43125;BME280;49182;50.788;7.318;2023-01-30T11:16:43;101029.97;;;7.67;68.43
43125;BME280;49182;50.788;7.318;2023-01-30T11:19:12;101033.53;;;7.53;67.04
43125;BME280;49182;50.788;7.318;2023-01-30T11:21:51;101035.03;;;7.57;67.87
43125;BME280;49182;50.788;7.318;2023-01-30T11:24:20;101029.13;;;7.66;67.66
43125;BME280;49182;50.788;7.318;2023-01-30T11:26:48;101033.53;;;7.53;67.46
43125;BME280;49182;50.788;7.318;2023-01-30T11:29:24;101017.88;;;7.39;66.64
43125;BME280;49182;50.788;7.318;2023-01-30T11:31:51;101042.06;;;7.57;67.10
43125;BME280;49182;50.788;7.318;2023-01-30T11:34:20;101047.72;;;7.51;67.45
43125;BME280;49182;50.788;7.318;2023-01-30T11:36:49;101046.88;;;7.50;66.94
43125;BME280;49182;50.788;7.318;2023-01-30T11:39:22;101033.75;;;7.38;67.09
43125;BME280;49182;50.788;7.318;2023-01-30T11:41:57;101047.50;;;7.41;67.59
43125;BME280;49182;50.788;7.318;2023-01-30T11:44:26;101034.59;;;7.38;68.30
43125;BME280;49182;50.788;7.318;2023-01-30T11:46:53;100996.63;;;7.17;68.81
43125;BME280;49182;50.788;7.318;2023-01-30T11:49:20;101027.13;;;7.32;67.61
43125;BME280;49182;50.788;7.318;2023-01-30T11:52:09;101035.44;;;7.39;67.69
43125;BME280;49182;50.788;7.318;2023-01-30T11:54:37;101021.34;;;7.40;67.94
43125;BME280;49182;50.788;7.318;2023-01-30T11:57:09;101041.09;;;7.45;67.41
43125;BME280;49182;50.788;7.318;2023-01-30T11:59:41;101021.56;;;7.49;68.01
43125;BME280;49182;50.788;7.318;2023-01-30T12:02:11;101025.00;;;7.37;67.86
43125;BME280;49182;50.788;7.318;2023-01-30T12:04:42;101027.97;;;7.32;67.60
43125;BME280;49182;50.788;7.318;2023-01-30T12:07:18;101029.22;;;7.40;67.68
43125;BME280;49182;50.788;7.318;2023-01-30T12:09:46;101016.38;;;7.22;67.09
43125;BME280;49182;50.788;7.318;2023-01-30T12:12:26;101023.97;;;7.40;68.62
43125;BME280;49182;50.788;7.318;2023-01-30T12:14:59;100974.34;;;7.10;68.17
43125;BME280;49182;50.788;7.318;2023-01-30T12:17:34;101035.94;;;7.31;68.33
43125;BME280;49182;50.788;7.318;2023-01-30T12:20:12;101037.63;;;7.45;68.17
43125;BME280;49182;50.788;7.318;2023-01-30T12:25:34;100942.69;;;6.86;68.56
43125;BME280;49182;50.788;7.318;2023-01-30T12:28:11;101032.47;;;7.30;68.91
43125;BME280;49182;50.788;7.318;2023-01-30T12:30:43;101040.44;;;7.29;67.89
43125;BME280;49182;50.788;7.318;2023-01-30T12:33:13;101037.72;;;7.30;67.96
43125;BME280;49182;50.788;7.318;2023-01-30T12:35:48;101040.00;;;7.22;67.72
43125;BME280;49182;50.788;7.318;2023-01-30T12:38:36;101033.53;;;7.28;68.31
43125;BME280;49182;50.788;7.318;2023-01-30T12:41:17;101027.91;;;7.07;67.70
43125;BME280;49182;50.788;7.318;2023-01-30T12:43:52;101034.47;;;7.27;66.91
43125;BME280;49182;50.788;7.318;2023-01-30T12:46:35;101032.25;;;7.21;66.99
43125;BME280;49182;50.788;7.318;2023-01-30T12:49:20;101021.34;;;7.27;68.06
43125;BME280;49182;50.788;7.318;2023-01-30T12:52:07;101025.44;;;7.31;67.17
43125;BME280;49182;50.788;7.318;2023-01-30T12:54:45;101011.09;;;7.10;67.65
43125;BME280;49182;50.788;7.318;2023-01-30T12:57:23;101021.31;;;7.14;66.67
43125;BME280;49182;50.788;7.318;2023-01-30T13:00:02;101030.97;;;7.14;66.57
43125;BME280;49182;50.788;7.318;2023-01-30T13:02:51;101029.06;;;7.03;66.31
43125;BME280;49182;50.788;7.318;2023-01-30T13:05:33;101073.06;;;7.12;67.37
43125;BME280;49182;50.788;7.318;2023-01-30T13:08:13;101066.91;;;7.26;67.50
43125;BME280;49182;50.788;7.318;2023-01-30T13:10:51;101058.81;;;7.29;66.61
43125;BME280;49182;50.788;7.318;2023-01-30T13:13:29;101061.16;;;7.34;67.10
43125;BME280;49182;50.788;7.318;2023-01-30T13:16:04;101053.25;;;7.21;66.40
43125;BME280;49182;50.788;7.318;2023-01-30T13:18:34;101073.03;;;7.39;64.78
43125;BME280;49182;50.788;7.318;2023-01-30T13:21:08;101067.88;;;7.38;65.71
43125;BME280;49182;50.788;7.318;2023-01-30T13:23:43;101076.19;;;7.44;65.18